sensor_id;sensor_type;location;lat;lon;timestamp;P1;durP1;ratioP1;P2;durP2;ratioP2
49153;SDS011;49455;52.252;9.124;2024-02-28T07:10:05;106.95;;;37.88;;
49153;SDS011;49455;52.252;9.124;2024-02-28T07:15:06;114.93;;;39.65;;
49153;SDS011;49455;52.252;9.124;2024-02-28T07:20:06;116.47;;;38.35;;
49153;SDS011;49455;52.252;9.124;2024-02-28T07:25:07;109.47;;;35.85;;
49153;SDS011;49455;52.252;9.124;2024-02-28T07:30:08;128.88;;;41.83;;
49153;SDS011;49455;52.252;9.124;2024-02-28T07:35:09;106.93;;;37.25;;
49153;SDS011;49455;52.252;9.124;2024-02-28T07:40:09;109.05;;;37.42;;
49153;SDS011;49455;52.252;9.124;2024-02-28T07:45:10;113.85;;;39.38;;
49153;SDS011;49455;52.252;9.124;2024-02-28T07:50:10;105.13;;;37.63;;
49153;SDS011;49455;52.252;9.124;2024-02-28T07:55:11;110.90;;;37.35;;
49153;SDS011;49455;52.252;9.124;2024-02-28T08:00:12;101.85;;;37.60;;
49153;SDS011;49455;52.252;9.124;2024-02-28T08:05:13;97.95;;;34.85;;
49153;SDS011;49455;52.252;9.124;2024-02-28T08:10:14;88.78;;;32.75;;
49153;SDS011;49455;52.252;9.124;2024-02-28T08:15:14;101.05;;;35.05;;
49153;SDS011;49455;52.252;9.124;2024-02-28T08:20:15;103.53;;;36.10;;
49153;SDS011;49455;52.252;9.124;2024-02-28T08:25:16;113.25;;;40.78;;
49153;SDS011;49455;52.252;9.124;2024-02-28T08:30:16;114.30;;;40.88;;
49153;SDS011;49455;52.252;9.124;2024-02-28T08:35:20;103.88;;;39.28;;
49153;SDS011;49455;52.252;9.124;2024-02-28T08:40:21;112.78;;;41.60;;
49153;SDS011;49455;52.252;9.124;2024-02-28T08:45:22;107.55;;;41.40;;
49153;SDS011;49455;52.252;9.124;2024-02-28T08:50:23;103.32;;;38.03;;
49153;SDS011;49455;52.252;9.124;2024-02-28T08:55:23;104.63;;;39.10;;
49153;SDS011;49455;52.252;9.124;2024-02-28T09:00:24;102.80;;;37.97;;
49153;SDS011;49455;52.252;9.124;2024-02-28T09:05:24;106.10;;;37.97;;
49153;SDS011;49455;52.252;9.124;2024-02-28T09:10:25;106.30;;;38.08;;
49153;SDS011;49455;52.252;9.124;2024-02-28T09:15:25;106.72;;;40.92;;
49153;SDS011;49455;52.252;9.124;2024-02-28T09:20:26;121.35;;;40.88;;
49153;SDS011;49455;52.252;9.124;2024-02-28T09:25:26;111.05;;;40.08;;
49153;SDS011;49455;52.252;9.124;2024-02-28T09:30:27;108.38;;;37.75;;
49153;SDS011;49455;52.252;9.124;2024-02-28T09:35:27;103.63;;;36.45;;
49153;SDS011;49455;52.252;9.124;2024-02-28T09:40:28;108.53;;;37.33;;
49153;SDS011;49455;52.252;9.124;2024-02-28T09:45:29;106.57;;;36.83;;
49153;SDS011;49455;52.252;9.124;2024-02-28T09:50:30;100.03;;;37.08;;
49153;SDS011;49455;52.252;9.124;2024-02-28T09:55:30;102.65;;;37.13;;
49153;SDS011;49455;52.252;9.124;2024-02-28T10:00:31;97.13;;;36.80;;
49153;SDS011;49455;52.252;9.124;2024-02-28T10:05:33;103.88;;;38.33;;
49153;SDS011;49455;52.252;9.124;2024-02-28T10:10:36;94.45;;;36.90;;
49153;SDS011;49455;52.252;9.124;2024-02-28T10:15:37;96.50;;;32.38;;
49153;SDS011;49455;52.252;9.124;2024-02-28T10:20:37;102.43;;;36.58;;
49153;SDS011;49455;52.252;9.124;2024-02-28T10:30:47;109.30;;;38.28;;
49153;SDS011;49455;52.252;9.124;2024-02-28T10:35:50;108.40;;;35.47;;
49153;SDS011;49455;52.252;9.124;2024-02-28T10:40:54;108.57;;;38.03;;
49153;SDS011;49455;52.252;9.124;2024-02-28T10:45:58;115.18;;;38.38;;
49153;SDS011;49455;52.252;9.124;2024-02-28T10:50:59;99.03;;;35.47;;
49153;SDS011;49455;52.252;9.124;2024-02-28T10:56:03;107.63;;;37.72;;
49153;SDS011;49455;52.252;9.124;2024-02-28T11:01:05;101.22;;;37.05;;
49153;SDS011;49455;52.252;9.124;2024-02-28T11:06:15;93.43;;;33.55;;
49153;SDS011;49455;52.252;9.124;2024-02-28T11:11:17;96.13;;;35.63;;
49153;SDS011;49455;52.252;9.124;2024-02-28T11:16:17;97.78;;;35.92;;
49153;SDS011;49455;52.252;9.124;2024-02-28T11:21:18;94.38;;;35.83;;
49153;SDS011;49455;52.252;9.124;2024-02-28T11:26:18;93.60;;;36.67;;
49153;SDS011;49455;52.252;9.124;2024-02-28T11:31:19;96.45;;;36.85;;
49153;SDS011;49455;52.252;9.124;2024-02-28T11:36:19;100.30;;;38.47;;
49153;SDS011;49455;52.252;9.124;2024-02-28T11:41:26;98.22;;;35.75;;
49153;SDS011;49455;52.252;9.124;2024-02-28T11:46:27;83.65;;;34.20;;
49153;SDS011;49455;52.252;9.124;2024-02-28T11:51:27;80.30;;;33.60;;
49153;SDS011;49455;52.252;9.124;2024-02-28T11:56:28;73.95;;;30.65;;
49153;SDS011;49455;52.252;9.124;2024-02-28T12:01:35;74.68;;;30.10;;
49153;SDS011;49455;52.252;9.124;2024-02-28T12:06:37;70.53;;;28.45;;
49153;SDS011;49455;52.252;9.124;2024-02-28T12:11:37;69.35;;;29.30;;
49153;SDS011;49455;52.252;9.124;2024-02-28T12:16:39;67.65;;;29.02;;
49153;SDS011;49455;52.252;9.124;2024-02-28T12:21:39;64.10;;;30.13;;
49153;SDS011;49455;52.252;9.124;2024-02-28T12:26:40;68.50;;;30.27;;
49153;SDS011;49455;52.252;9.124;2024-02-28T12:31:41;70.00;;;30.58;;
49153;SDS011;49455;52.252;9.124;2024-02-28T12:36:42;122.00;;;52.47;;
49153;SDS011;49455;52.252;9.124;2024-02-28T12:41:42;61.63;;;27.48;;
49153;SDS011;49455;52.252;9.124;2024-02-28T12:46:42;73.35;;;30.27;;
49153;SDS011;49455;52.252;9.124;2024-02-28T12:51:43;69.43;;;31.17;;
49153;SDS011;49455;52.252;9.124;2024-02-28T12:56:45;68.35;;;30.40;;
49153;SDS011;49455;52.252;9.124;2024-02-28T13:01:45;70.95;;;30.63;;
49153;SDS011;49455;52.252;9.124;2024-02-28T13:06:45;71.40;;;31.92;;
49153;SDS011;49455;52.252;9.124;2024-02-28T13:11:46;70.32;;;31.63;;
49153;SDS011;49455;52.252;9.124;2024-02-28T13:16:47;65.60;;;29.40;;
49153;SDS011;49455;52.252;9.124;2024-02-28T13:21:47;69.95;;;30.75;;
49153;SDS011;49455;52.252;9.124;2024-02-28T13:26:53;70.57;;;31.95;;
49153;SDS011;49455;52.252;9.124;2024-02-28T13:32:01;66.60;;;29.63;;
49153;SDS011;49455;52.252;9.124;2024-02-28T13:42:25;68.82;;;31.85;;
49153;SDS011;49455;52.252;9.124;2024-02-28T13:47:29;69.70;;;32.63;;
49153;SDS011;49455;52.252;9.124;2024-02-28T13:52:50;66.72;;;30.85;;
49153;SDS011;49455;52.252;9.124;2024-02-28T13:57:54;63.92;;;29.77;;
49153;SDS011;49455;52.252;9.124;2024-02-28T14:03:00;62.15;;;29.98;;
49153;SDS011;49455;52.252;9.124;2024-02-28T14:08:26;62.90;;;30.25;;
49153;SDS011;49455;52.252;9.124;2024-02-28T14:13:36;58.58;;;27.70;;
49153;SDS011;49455;52.252;9.124;2024-02-28T14:18:37;61.00;;;29.98;;
49153;SDS011;49455;52.252;9.124;2024-02-28T14:23:44;59.80;;;28.90;;
49153;SDS011;49455;52.252;9.124;2024-02-28T14:28:47;58.80;;;28.05;;
49153;SDS011;49455;52.252;9.124;2024-02-28T14:33:59;62.83;;;30.02;;
49153;SDS011;49455;52.252;9.124;2024-02-28T14:39:02;58.60;;;26.95;;
49153;SDS011;49455;52.252;9.124;2024-02-28T14:44:33;58.97;;;27.92;;
49153;SDS011;49455;52.252;9.124;2024-02-28T14:49:46;58.57;;;29.50;;
49153;SDS011;49455;52.252;9.124;2024-02-28T15:00:24;61.17;;;28.85;;
49153;SDS011;49455;52.252;9.124;2024-02-28T15:05:30;62.75;;;29.15;;
49153;SDS011;49455;52.252;9.124;2024-02-28T15:10:34;60.10;;;29.40;;
49153;SDS011;49455;52.252;9.124;2024-02-28T15:15:34;58.10;;;28.15;;
49153;SDS011;49455;52.252;9.124;2024-02-28T15:20:35;61.08;;;29.00;;
49153;SDS011;49455;52.252;9.124;2024-02-28T15:26:04;61.47;;;29.48;;
49153;SDS011;49455;52.252;9.124;2024-02-28T15:31:07;64.00;;;28.83;;
49153;SDS011;49455;52.252;9.124;2024-02-28T15:36:11;60.58;;;28.88;;
49153;SDS011;49455;52.252;9.124;2024-02-28T15:41:29;64.95;;;30.38;;
49153;SDS011;49455;52.252;9.124;2024-02-28T15:46:30;58.73;;;28.83;;
49153;SDS011;49455;52.252;9.124;2024-02-28T15:51:31;64.82;;;31.10;;
49153;SDS011;49455;52.252;9.124;2024-02-28T15:56:32;59.83;;;28.80;;
49153;SDS011;49455;52.252;9.124;2024-02-28T16:01:32;65.30;;;30.30;;
49153;SDS011;49455;52.252;9.124;2024-02-28T16:06:36;63.47;;;29.25;;
49153;SDS011;49455;52.252;9.124;2024-02-28T16:11:41;55.92;;;27.35;;
49153;SDS011;49455;52.252;9.124;2024-02-28T16:17:05;57.90;;;27.80;;
49153;SDS011;49455;52.252;9.124;2024-02-28T16:22:15;62.03;;;27.23;;
49153;SDS011;49455;52.252;9.124;2024-02-28T16:27:16;61.35;;;27.40;;
49153;SDS011;49455;52.252;9.124;2024-02-28T16:32:24;64.65;;;29.50;;
49153;SDS011;49455;52.252;9.124;2024-02-28T16:37:30;65.50;;;28.23;;
49153;SDS011;49455;52.252;9.124;2024-02-28T16:42:36;65.18;;;28.90;;
49153;SDS011;49455;52.252;9.124;2024-02-28T16:47:46;68.32;;;29.70;;
49153;SDS011;49455;52.252;9.124;2024-02-28T16:52:46;72.32;;;33.22;;
49153;SDS011;49455;52.252;9.124;2024-02-28T16:57:47;75.43;;;35.17;;
49153;SDS011;49455;52.252;9.124;2024-02-28T17:02:47;77.38;;;34.05;;
49153;SDS011;49455;52.252;9.124;2024-02-28T17:07:48;70.80;;;32.22;;
49153;SDS011;49455;52.252;9.124;2024-02-28T17:12:48;62.45;;;28.88;;
49153;SDS011;49455;52.252;9.124;2024-02-28T17:17:49;89.35;;;38.45;;
49153;SDS011;49455;52.252;9.124;2024-02-28T17:22:49;72.65;;;31.40;;
49153;SDS011;49455;52.252;9.124;2024-02-28T17:27:50;86.53;;;41.05;;
49153;SDS011;49455;52.252;9.124;2024-02-28T17:32:50;72.57;;;32.53;;
49153;SDS011;49455;52.252;9.124;2024-02-28T17:37:51;73.50;;;31.40;;
49153;SDS011;49455;52.252;9.124;2024-02-28T17:42:51;67.28;;;29.50;;
49153;SDS011;49455;52.252;9.124;2024-02-28T17:47:52;70.30;;;31.77;;
49153;SDS011;49455;52.252;9.124;2024-02-28T17:52:52;69.13;;;30.10;;
49153;SDS011;49455;52.252;9.124;2024-02-28T17:57:53;69.93;;;32.13;;
49153;SDS011;49455;52.252;9.124;2024-02-28T18:02:54;72.40;;;30.77;;
49153;SDS011;49455;52.252;9.124;2024-02-28T18:07:54;69.90;;;30.50;;
49153;SDS011;49455;52.252;9.124;2024-02-28T18:12:55;68.65;;;29.92;;
49153;SDS011;49455;52.252;9.124;2024-02-28T18:17:55;70.03;;;30.70;;
49153;SDS011;49455;52.252;9.124;2024-02-28T18:22:56;70.00;;;30.17;;
49153;SDS011;49455;52.252;9.124;2024-02-28T18:27:56;72.32;;;31.48;;
49153;SDS011;49455;52.252;9.124;2024-02-28T18:32:56;71.85;;;30.88;;
49153;SDS011;49455;52.252;9.124;2024-02-28T18:37:57;72.00;;;31.73;;
49153;SDS011;49455;52.252;9.124;2024-02-28T18:42:58;77.55;;;31.40;;
49153;SDS011;49455;52.252;9.124;2024-02-28T18:47:58;74.65;;;31.90;;
49153;SDS011;49455;52.252;9.124;2024-02-28T18:52:59;80.00;;;33.38;;
49153;SDS011;49455;52.252;9.124;2024-02-28T18:57:59;73.05;;;32.45;;
49153;SDS011;49455;52.252;9.124;2024-02-28T19:03:00;77.57;;;33.83;;
49153;SDS011;49455;52.252;9.124;2024-02-28T19:08:00;78.50;;;32.88;;
49153;SDS011;49455;52.252;9.124;2024-02-28T19:13:00;78.72;;;34.08;;
49153;SDS011;49455;52.252;9.124;2024-02-28T19:18:01;80.03;;;33.60;;
49153;SDS011;49455;52.252;9.124;2024-02-28T19:23:02;82.75;;;34.95;;
49153;SDS011;49455;52.252;9.124;2024-02-28T19:28:02;82.95;;;33.67;;
49153;SDS011;49455;52.252;9.124;2024-02-28T19:33:03;82.18;;;34.95;;
49153;SDS011;49455;52.252;9.124;2024-02-28T19:38:04;82.65;;;35.03;;
49153;SDS011;49455;52.252;9.124;2024-02-28T19:43:17;90.07;;;38.78;;
49153;SDS011;49455;52.252;9.124;2024-02-28T19:48:20;86.05;;;34.55;;
49153;SDS011;49455;52.252;9.124;2024-02-28T19:53:20;88.22;;;36.97;;
49153;SDS011;49455;52.252;9.124;2024-02-28T19:58:21;88.32;;;36.67;;
49153;SDS011;49455;52.252;9.124;2024-02-28T20:03:21;99.75;;;37.45;;
49153;SDS011;49455;52.252;9.124;2024-02-28T20:08:22;87.25;;;35.90;;
49153;SDS011;49455;52.252;9.124;2024-02-28T20:13:22;80.85;;;34.20;;
49153;SDS011;49455;52.252;9.124;2024-02-28T20:18:23;88.40;;;35.85;;
49153;SDS011;49455;52.252;9.124;2024-02-28T20:23:23;84.30;;;35.97;;
49153;SDS011;49455;52.252;9.124;2024-02-28T20:28:24;87.45;;;36.95;;
49153;SDS011;49455;52.252;9.124;2024-02-28T20:33:24;85.22;;;35.47;;
49153;SDS011;49455;52.252;9.124;2024-02-28T20:38:25;88.68;;;36.33;;
49153;SDS011;49455;52.252;9.124;2024-02-28T20:43:25;82.60;;;34.53;;
49153;SDS011;49455;52.252;9.124;2024-02-28T20:48:26;82.32;;;33.75;;
49153;SDS011;49455;52.252;9.124;2024-02-28T20:53:26;85.40;;;35.35;;
49153;SDS011;49455;52.252;9.124;2024-02-28T20:58:27;84.38;;;36.83;;
49153;SDS011;49455;52.252;9.124;2024-02-28T21:03:27;85.82;;;35.20;;
49153;SDS011;49455;52.252;9.124;2024-02-28T21:08:28;78.28;;;34.13;;
49153;SDS011;49455;52.252;9.124;2024-02-28T21:13:28;76.72;;;32.85;;
49153;SDS011;49455;52.252;9.124;2024-02-28T21:18:29;81.10;;;34.78;;
49153;SDS011;49455;52.252;9.124;2024-02-28T21:23:29;78.07;;;34.08;;
49153;SDS011;49455;52.252;9.124;2024-02-28T21:28:30;76.88;;;34.20;;
49153;SDS011;49455;52.252;9.124;2024-02-28T21:45:04;77.25;;;32.83;;
49153;SDS011;49455;52.252;9.124;2024-02-28T21:50:16;72.28;;;30.77;;
49153;SDS011;49455;52.252;9.124;2024-02-28T21:55:16;72.55;;;30.83;;
49153;SDS011;49455;52.252;9.124;2024-02-28T22:00:17;72.10;;;31.42;;
49153;SDS011;49455;52.252;9.124;2024-02-28T22:05:17;71.93;;;30.33;;
49153;SDS011;49455;52.252;9.124;2024-02-28T22:10:18;65.63;;;29.13;;
49153;SDS011;49455;52.252;9.124;2024-02-28T22:15:21;59.22;;;27.70;;
49153;SDS011;49455;52.252;9.124;2024-02-28T22:20:24;61.10;;;26.85;;
49153;SDS011;49455;52.252;9.124;2024-02-28T22:25:25;54.65;;;24.75;;
49153;SDS011;49455;52.252;9.124;2024-02-28T22:30:27;51.38;;;24.58;;
49153;SDS011;49455;52.252;9.124;2024-02-28T22:35:27;51.42;;;22.85;;
49153;SDS011;49455;52.252;9.124;2024-02-28T22:40:28;45.83;;;21.25;;
49153;SDS011;49455;52.252;9.124;2024-02-28T22:45:28;46.33;;;21.98;;
49153;SDS011;49455;52.252;9.124;2024-02-28T22:50:29;45.25;;;20.73;;
49153;SDS011;49455;52.252;9.124;2024-02-28T22:55:29;43.13;;;20.42;;
49153;SDS011;49455;52.252;9.124;2024-02-28T23:00:30;45.10;;;20.73;;
49153;SDS011;49455;52.252;9.124;2024-02-28T23:05:30;46.85;;;20.92;;
49153;SDS011;49455;52.252;9.124;2024-02-28T23:10:32;43.50;;;20.48;;
49153;SDS011;49455;52.252;9.124;2024-02-28T23:15:32;44.33;;;20.20;;
49153;SDS011;49455;52.252;9.124;2024-02-28T23:20:33;46.83;;;21.10;;
49153;SDS011;49455;52.252;9.124;2024-02-28T23:25:33;41.40;;;19.80;;
49153;SDS011;49455;52.252;9.124;2024-02-28T23:30:34;44.95;;;20.80;;
